sensor_id;sensor_type;location;lat;lon;timestamp;P1;P2;P0
30713;PMS7003;17465;47.934;33.430;2024-01-30T00:02:11;128.60;126.00;119.80
30713;PMS7003;17465;47.934;33.430;2024-01-30T00:04:41;102.20;91.60;81.00
30713;PMS7003;17465;47.934;33.430;2024-01-30T00:07:11;108.75;98.25;93.00
30713;PMS7003;17465;47.934;33.430;2024-01-30T00:09:41;112.40;106.40;102.00
30713;PMS7003;17465;47.934;33.430;2024-01-30T00:12:12;113.40;111.60;100.20
30713;PMS7003;17465;47.934;33.430;2024-01-30T00:14:42;107.20;102.20;91.40
30713;PMS7003;17465;47.934;33.430;2024-01-30T00:17:12;93.75;80.25;66.25
30713;PMS7003;17465;47.934;33.430;2024-01-30T00:19:43;94.50;80.25;65.75
30713;PMS7003;17465;47.934;33.430;2024-01-30T00:22:13;109.50;106.00;93.25
30713;PMS7003;17465;47.934;33.430;2024-01-30T00:24:43;127.60;122.20;111.40
30713;PMS7003;17465;47.934;33.430;2024-01-30T00:27:14;119.50;115.50;99.50
30713;PMS7003;17465;47.934;33.430;2024-01-30T00:29:44;93.00;78.25;62.25
30713;PMS7003;17465;47.934;33.430;2024-01-30T00:32:14;79.75;64.75;45.25
30713;PMS7003;17465;47.934;33.430;2024-01-30T00:34:44;66.25;53.75;35.00
30713;PMS7003;17465;47.934;33.430;2024-01-30T00:37:15;63.50;52.00;31.75
30713;PMS7003;17465;47.934;33.430;2024-01-30T00:39:45;75.40;63.40;44.00
30713;PMS7003;17465;47.934;33.430;2024-01-30T00:42:15;77.50;62.50;42.75
30713;PMS7003;17465;47.934;33.430;2024-01-30T00:44:45;56.50;44.50;29.00
30713;PMS7003;17465;47.934;33.430;2024-01-30T00:47:16;65.00;55.50;36.75
30713;PMS7003;17465;47.934;33.430;2024-01-30T00:49:46;68.00;55.00;38.25
30713;PMS7003;17465;47.934;33.430;2024-01-30T00:52:17;59.00;50.25;30.50
30713;PMS7003;17465;47.934;33.430;2024-01-30T00:54:47;61.00;49.50;31.75
30713;PMS7003;17465;47.934;33.430;2024-01-30T00:57:17;80.75;65.50;49.25
30713;PMS7003;17465;47.934;33.430;2024-01-30T00:59:48;51.75;41.25;26.25
30713;PMS7003;17465;47.934;33.430;2024-01-30T01:02:18;50.50;40.00;24.00
30713;PMS7003;17465;47.934;33.430;2024-01-30T01:04:48;46.00;43.00;19.50
30713;PMS7003;17465;47.934;33.430;2024-01-30T01:07:18;46.25;37.00;18.00
30713;PMS7003;17465;47.934;33.430;2024-01-30T01:09:49;67.25;55.00;36.75
30713;PMS7003;17465;47.934;33.430;2024-01-30T01:12:19;61.25;50.50;32.75
30713;PMS7003;17465;47.934;33.430;2024-01-30T01:14:53;59.00;48.00;28.50
30713;PMS7003;17465;47.934;33.430;2024-01-30T01:17:38;51.25;44.50;21.00
30713;PMS7003;17465;47.934;33.430;2024-01-30T01:20:20;49.50;42.00;16.50
30713;PMS7003;17465;47.934;33.430;2024-01-30T01:22:55;52.75;45.25;26.50
30713;PMS7003;17465;47.934;33.430;2024-01-30T01:25:26;57.25;48.50;29.00
30713;PMS7003;17465;47.934;33.430;2024-01-30T01:27:57;54.75;43.75;26.50
30713;PMS7003;17465;47.934;33.430;2024-01-30T01:30:27;60.50;49.50;30.25
30713;PMS7003;17465;47.934;33.430;2024-01-30T01:32:57;50.75;43.50;21.50
30713;PMS7003;17465;47.934;33.430;2024-01-30T01:35:28;38.50;35.00;13.00
30713;PMS7003;17465;47.934;33.430;2024-01-30T01:37:58;41.50;37.50;15.50
30713;PMS7003;17465;47.934;33.430;2024-01-30T01:40:29;35.25;29.25;10.50
30713;PMS7003;17465;47.934;33.430;2024-01-30T01:43:02;49.50;41.50;20.25
30713;PMS7003;17465;47.934;33.430;2024-01-30T01:45:32;48.75;43.50;26.50
30713;PMS7003;17465;47.934;33.430;2024-01-30T01:48:03;32.50;32.50;11.00
30713;PMS7003;17465;47.934;33.430;2024-01-30T01:50:33;42.50;34.25;15.50
30713;PMS7003;17465;47.934;33.430;2024-01-30T01:53:06;36.50;30.25;6.00
30713;PMS7003;17465;47.934;33.430;2024-01-30T01:55:38;38.00;32.00;10.00
30713;PMS7003;17465;47.934;33.430;2024-01-30T01:58:09;37.00;32.75;13.25
30713;PMS7003;17465;47.934;33.430;2024-01-30T02:00:40;36.25;33.25;5.50
30713;PMS7003;17465;47.934;33.430;2024-01-30T02:03:10;48.00;38.50;17.00
30713;PMS7003;17465;47.934;33.430;2024-01-30T02:05:42;40.00;35.00;8.75
30713;PMS7003;17465;47.934;33.430;2024-01-30T02:08:12;45.25;33.00;15.50
30713;PMS7003;17465;47.934;33.430;2024-01-30T02:10:43;48.25;38.25;14.75
30713;PMS7003;17465;47.934;33.430;2024-01-30T02:13:13;34.00;24.75;4.75
30713;PMS7003;17465;47.934;33.430;2024-01-30T02:15:43;46.25;33.75;14.25
30713;PMS7003;17465;47.934;33.430;2024-01-30T02:18:15;45.25;41.00;18.50
30713;PMS7003;17465;47.934;33.430;2024-01-30T02:20:45;45.25;37.25;13.75
30713;PMS7003;17465;47.934;33.430;2024-01-30T02:23:15;45.75;42.00;19.50
30713;PMS7003;17465;47.934;33.430;2024-01-30T02:25:51;45.75;40.50;15.25
30713;PMS7003;17465;47.934;33.430;2024-01-30T02:28:22;47.75;42.25;14.75
30713;PMS7003;17465;47.934;33.430;2024-01-30T02:30:52;37.00;30.00;10.75
30713;PMS7003;17465;47.934;33.430;2024-01-30T02:33:22;47.50;42.00;14.25
30713;PMS7003;17465;47.934;33.430;2024-01-30T02:35:53;33.00;33.00;8.00
30713;PMS7003;17465;47.934;33.430;2024-01-30T02:38:23;42.75;34.50;10.50
30713;PMS7003;17465;47.934;33.430;2024-01-30T02:40:53;35.25;34.75;11.75
30713;PMS7003;17465;47.934;33.430;2024-01-30T02:43:24;54.50;44.75;19.50
30713;PMS7003;17465;47.934;33.430;2024-01-30T02:45:54;35.00;30.50;8.00
30713;PMS7003;17465;47.934;33.430;2024-01-30T02:48:27;35.75;30.50;10.50
30713;PMS7003;17465;47.934;33.430;2024-01-30T02:50:57;39.25;29.50;10.00
30713;PMS7003;17465;47.934;33.430;2024-01-30T02:53:27;48.00;40.75;16.75
30713;PMS7003;17465;47.934;33.430;2024-01-30T02:55:57;41.50;35.50;11.75
30713;PMS7003;17465;47.934;33.430;2024-01-30T02:58:28;42.25;34.75;12.50
30713;PMS7003;17465;47.934;33.430;2024-01-30T03:00:58;35.75;29.25;8.75
30713;PMS7003;17465;47.934;33.430;2024-01-30T03:03:29;40.25;33.25;4.50
30713;PMS7003;17465;47.934;33.430;2024-01-30T03:05:59;43.75;36.00;16.00
30713;PMS7003;17465;47.934;33.430;2024-01-30T03:08:30;42.50;40.50;11.50
30713;PMS7003;17465;47.934;33.430;2024-01-30T03:11:00;39.25;34.25;10.25
30713;PMS7003;17465;47.934;33.430;2024-01-30T03:13:30;35.25;29.75;7.75
30713;PMS7003;17465;47.934;33.430;2024-01-30T03:16:01;47.25;41.75;15.25
30713;PMS7003;17465;47.934;33.430;2024-01-30T03:18:31;49.25;41.50;14.75
30713;PMS7003;17465;47.934;33.430;2024-01-30T03:21:02;39.25;30.00;7.75
30713;PMS7003;17465;47.934;33.430;2024-01-30T03:23:32;29.25;24.25;8.00
30713;PMS7003;17465;47.934;33.430;2024-01-30T03:26:02;40.00;34.00;7.00
30713;PMS7003;17465;47.934;33.430;2024-01-30T03:28:33;28.00;21.75;0.00
30713;PMS7003;17465;47.934;33.430;2024-01-30T03:31:03;29.75;24.75;4.75
30713;PMS7003;17465;47.934;33.430;2024-01-30T03:33:33;39.40;36.40;14.20
30713;PMS7003;17465;47.934;33.430;2024-01-30T03:36:05;38.80;32.60;9.20
30713;PMS7003;17465;47.934;33.430;2024-01-30T03:38:37;47.60;39.40;16.20
30713;PMS7003;17465;47.934;33.430;2024-01-30T03:41:07;30.00;24.60;12.60
30713;PMS7003;17465;47.934;33.430;2024-01-30T03:43:38;67.80;53.40;21.80
30713;PMS7003;17465;47.934;33.430;2024-01-30T03:46:08;54.20;44.20;18.00
30713;PMS7003;17465;47.934;33.430;2024-01-30T03:48:40;42.25;38.00;8.00
30713;PMS7003;17465;47.934;33.430;2024-01-30T03:51:10;42.00;35.50;11.50
30713;PMS7003;17465;47.934;33.430;2024-01-30T03:53:41;34.00;30.50;10.00
30713;PMS7003;17465;47.934;33.430;2024-01-30T03:56:15;47.00;39.50;15.50
30713;PMS7003;17465;47.934;33.430;2024-01-30T03:58:45;40.50;30.00;10.00
30713;PMS7003;17465;47.934;33.430;2024-01-30T04:01:16;49.00;42.00;16.00
30713;PMS7003;17465;47.934;33.430;2024-01-30T04:03:46;45.75;39.75;12.50
30713;PMS7003;17465;47.934;33.430;2024-01-30T04:06:18;40.75;35.75;20.00
30713;PMS7003;17465;47.934;33.430;2024-01-30T04:08:48;41.50;36.00;11.75
30713;PMS7003;17465;47.934;33.430;2024-01-30T04:11:18;66.50;55.25;33.00
30713;PMS7003;17465;47.934;33.430;2024-01-30T04:13:49;77.50;65.00;41.75
30713;PMS7003;17465;47.934;33.430;2024-01-30T04:16:22;72.50;60.75;42.75
30713;PMS7003;17465;47.934;33.430;2024-01-30T04:18:53;87.25;73.75;65.75
30713;PMS7003;17465;47.934;33.430;2024-01-30T04:21:23;91.75;71.25;51.00
30713;PMS7003;17465;47.934;33.430;2024-01-30T04:23:53;91.75;76.75;65.75
30713;PMS7003;17465;47.934;33.430;2024-01-30T04:26:24;96.75;78.00;56.25
30713;PMS7003;17465;47.934;33.430;2024-01-30T04:28:54;91.50;74.25;57.50
30713;PMS7003;17465;47.934;33.430;2024-01-30T04:31:24;112.25;103.25;77.25
30713;PMS7003;17465;47.934;33.430;2024-01-30T04:33:54;98.00;82.25;72.25
30713;PMS7003;17465;47.934;33.430;2024-01-30T04:36:25;118.25;110.75;94.25
30713;PMS7003;17465;47.934;33.430;2024-01-30T04:38:55;125.25;123.75;110.50
30713;PMS7003;17465;47.934;33.430;2024-01-30T04:41:25;123.50;118.25;119.25
30713;PMS7003;17465;47.934;33.430;2024-01-30T04:43:55;106.00;98.50;80.25
30713;PMS7003;17465;47.934;33.430;2024-01-30T04:46:29;111.75;96.00;84.00
30713;PMS7003;17465;47.934;33.430;2024-01-30T04:48:59;101.25;88.50;76.00
30713;PMS7003;17465;47.934;33.430;2024-01-30T04:51:29;97.00;81.50;72.25
30713;PMS7003;17465;47.934;33.430;2024-01-30T04:54:00;104.75;91.25;85.00
30713;PMS7003;17465;47.934;33.430;2024-01-30T04:56:30;97.50;81.50;74.00
30713;PMS7003;17465;47.934;33.430;2024-01-30T04:59:06;99.00;85.25;75.00
30713;PMS7003;17465;47.934;33.430;2024-01-30T05:01:36;104.50;87.75;76.25
30713;PMS7003;17465;47.934;33.430;2024-01-30T05:04:09;104.25;89.50;83.00
30713;PMS7003;17465;47.934;33.430;2024-01-30T05:06:46;104.75;92.00;82.25
30713;PMS7003;17465;47.934;33.430;2024-01-30T05:09:17;106.25;96.75;85.25
30713;PMS7003;17465;47.934;33.430;2024-01-30T05:11:49;117.00;110.25;110.00
30713;PMS7003;17465;47.934;33.430;2024-01-30T05:14:19;154.33;152.00;144.33
30713;PMS7003;17465;47.934;33.430;2024-01-30T05:16:50;180.80;177.20;159.20
30713;PMS7003;17465;47.934;33.430;2024-01-30T05:19:20;196.25;188.75;182.50
30713;PMS7003;17465;47.934;33.430;2024-01-30T05:21:50;179.00;171.50;153.00
30713;PMS7003;17465;47.934;33.430;2024-01-30T05:24:21;159.50;151.50;135.50
30713;PMS7003;17465;47.934;33.430;2024-01-30T05:26:53;218.25;211.75;190.25
30713;PMS7003;17465;47.934;33.430;2024-01-30T05:29:23;166.25;157.50;144.75
30713;PMS7003;17465;47.934;33.430;2024-01-30T05:31:53;181.50;171.75;145.25
30713;PMS7003;17465;47.934;33.430;2024-01-30T05:34:24;140.50;132.00;116.75
30713;PMS7003;17465;47.934;33.430;2024-01-30T05:36:54;146.25;143.25;127.00
30713;PMS7003;17465;47.934;33.430;2024-01-30T05:39:24;118.25;106.75;92.00
30713;PMS7003;17465;47.934;33.430;2024-01-30T05:41:54;113.50;101.50;73.25
30713;PMS7003;17465;47.934;33.430;2024-01-30T05:44:24;103.00;87.25;62.25
30713;PMS7003;17465;47.934;33.430;2024-01-30T05:46:55;99.00;80.00;58.50
30713;PMS7003;17465;47.934;33.430;2024-01-30T05:49:29;91.25;73.50;62.75
30713;PMS7003;17465;47.934;33.430;2024-01-30T05:51:59;85.50;70.25;58.25
30713;PMS7003;17465;47.934;33.430;2024-01-30T05:54:32;84.00;64.25;43.75
30713;PMS7003;17465;47.934;33.430;2024-01-30T05:57:07;72.00;57.00;36.50
30713;PMS7003;17465;47.934;33.430;2024-01-30T05:59:38;78.25;63.50;42.50
30713;PMS7003;17465;47.934;33.430;2024-01-30T06:02:14;71.00;59.25;38.25
30713;PMS7003;17465;47.934;33.430;2024-01-30T06:04:41;51.80;43.60;13.20
30713;PMS7003;17465;47.934;33.430;2024-01-30T06:07:12;40.00;33.75;11.00
30713;PMS7003;17465;47.934;33.430;2024-01-30T06:09:42;42.60;34.60;10.60
30713;PMS7003;17465;47.934;33.430;2024-01-30T06:12:13;29.50;21.25;11.25
30713;PMS7003;17465;47.934;33.430;2024-01-30T06:14:43;46.50;42.00;17.00
30713;PMS7003;17465;47.934;33.430;2024-01-30T06:17:14;53.50;39.75;12.50
30713;PMS7003;17465;47.934;33.430;2024-01-30T06:19:45;45.50;39.00;16.00
30713;PMS7003;17465;47.934;33.430;2024-01-30T06:22:15;43.50;40.25;17.25
30713;PMS7003;17465;47.934;33.430;2024-01-30T06:24:46;45.75;43.25;15.50
30713;PMS7003;17465;47.934;33.430;2024-01-30T06:27:16;44.50;42.75;13.50
30713;PMS7003;17465;47.934;33.430;2024-01-30T06:29:47;58.25;45.75;18.00
30713;PMS7003;17465;47.934;33.430;2024-01-30T06:32:17;67.00;54.75;28.00
30713;PMS7003;17465;47.934;33.430;2024-01-30T06:34:47;55.75;45.75;16.00
30713;PMS7003;17465;47.934;33.430;2024-01-30T06:37:18;49.25;42.00;15.50
30713;PMS7003;17465;47.934;33.430;2024-01-30T06:39:48;57.75;47.25;21.50
30713;PMS7003;17465;47.934;33.430;2024-01-30T06:42:18;50.00;44.00;15.00
30713;PMS7003;17465;47.934;33.430;2024-01-30T06:44:49;55.25;45.50;18.75
30713;PMS7003;17465;47.934;33.430;2024-01-30T06:47:19;52.00;43.50;14.25
30713;PMS7003;17465;47.934;33.430;2024-01-30T06:49:49;62.25;46.25;23.00
30713;PMS7003;17465;47.934;33.430;2024-01-30T06:52:23;56.50;44.00;14.25
30713;PMS7003;17465;47.934;33.430;2024-01-30T06:54:54;69.25;56.75;32.75
30713;PMS7003;17465;47.934;33.430;2024-01-30T06:57:25;65.50;53.50;31.00
30713;PMS7003;17465;47.934;33.430;2024-01-30T06:59:56;69.50;54.50;34.00
30713;PMS7003;17465;47.934;33.430;2024-01-30T07:02:26;97.00;81.00;58.00
30713;PMS7003;17465;47.934;33.430;2024-01-30T07:04:56;94.75;78.25;62.00
30713;PMS7003;17465;47.934;33.430;2024-01-30T07:07:27;100.50;91.50;75.25
30713;PMS7003;17465;47.934;33.430;2024-01-30T07:09:57;103.50;93.25;73.25
30713;PMS7003;17465;47.934;33.430;2024-01-30T07:12:27;93.50;75.75;51.50
30713;PMS7003;17465;47.934;33.430;2024-01-30T07:14:59;102.50;87.00;68.50
30713;PMS7003;17465;47.934;33.430;2024-01-30T07:17:30;99.25;82.50;59.50
30713;PMS7003;17465;47.934;33.430;2024-01-30T07:20:00;95.75;79.25;54.00
30713;PMS7003;17465;47.934;33.430;2024-01-30T07:22:32;95.50;76.75;55.75
30713;PMS7003;17465;47.934;33.430;2024-01-30T07:25:03;110.00;104.25;83.75
30713;PMS7003;17465;47.934;33.430;2024-01-30T07:27:34;100.00;86.00;61.75
30713;PMS7003;17465;47.934;33.430;2024-01-30T07:30:06;119.50;109.00;82.00
30713;PMS7003;17465;47.934;33.430;2024-01-30T07:32:42;96.50;77.50;51.75
30713;PMS7003;17465;47.934;33.430;2024-01-30T07:35:18;85.25;67.50;45.00
30713;PMS7003;17465;47.934;33.430;2024-01-30T07:37:45;97.50;80.00;60.25
30713;PMS7003;17465;47.934;33.430;2024-01-30T07:40:16;83.25;65.50;45.25
30713;PMS7003;17465;47.934;33.430;2024-01-30T07:42:47;74.25;60.50;39.50
30713;PMS7003;17465;47.934;33.430;2024-01-30T07:45:22;67.50;53.75;35.50
30713;PMS7003;17465;47.934;33.430;2024-01-30T07:47:53;62.50;50.75;32.75
30713;PMS7003;17465;47.934;33.430;2024-01-30T07:50:23;63.50;49.25;28.00
30713;PMS7003;17465;47.934;33.430;2024-01-30T07:52:55;61.00;50.50;28.50
30713;PMS7003;17465;47.934;33.430;2024-01-30T07:55:26;53.50;47.50;27.75
30713;PMS7003;17465;47.934;33.430;2024-01-30T07:57:57;49.75;45.25;27.25
30713;PMS7003;17465;47.934;33.430;2024-01-30T08:00:31;46.75;44.00;24.25
30713;PMS7003;17465;47.934;33.430;2024-01-30T08:02:59;54.50;47.75;27.75
30713;PMS7003;17465;47.934;33.430;2024-01-30T08:05:33;45.25;42.50;24.25
30713;PMS7003;17465;47.934;33.430;2024-01-30T08:08:06;40.25;37.75;15.25
30713;PMS7003;17465;47.934;33.430;2024-01-30T08:10:37;43.25;39.25;16.00
30713;PMS7003;17465;47.934;33.430;2024-01-30T08:13:14;35.00;31.25;12.75
30713;PMS7003;17465;47.934;33.430;2024-01-30T08:15:45;41.25;36.25;18.25
30713;PMS7003;17465;47.934;33.430;2024-01-30T08:18:15;39.25;36.25;18.00
30713;PMS7003;17465;47.934;33.430;2024-01-30T08:20:45;30.00;30.00;16.25
30713;PMS7003;17465;47.934;33.430;2024-01-30T08:23:16;31.00;24.00;12.50
30713;PMS7003;17465;47.934;33.430;2024-01-30T08:25:49;32.50;29.25;13.00
30713;PMS7003;17465;47.934;33.430;2024-01-30T08:28:20;32.75;29.50;14.75
30713;PMS7003;17465;47.934;33.430;2024-01-30T08:30:50;27.00;25.00;12.50
30713;PMS7003;17465;47.934;33.430;2024-01-30T08:33:21;30.00;28.50;19.00
30713;PMS7003;17465;47.934;33.430;2024-01-30T08:35:54;28.25;25.25;15.50
30713;PMS7003;17465;47.934;33.430;2024-01-30T08:38:42;52.25;45.25;32.50
30713;PMS7003;17465;47.934;33.430;2024-01-30T08:41:10;28.25;26.50;23.25
30713;PMS7003;17465;47.934;33.430;2024-01-30T08:43:40;24.00;22.75;12.00
30713;PMS7003;17465;47.934;33.430;2024-01-30T08:46:12;31.50;29.00;17.75
30713;PMS7003;17465;47.934;33.430;2024-01-30T08:48:44;24.50;24.25;15.25
30713;PMS7003;17465;47.934;33.430;2024-01-30T08:51:26;27.00;23.50;14.50
30713;PMS7003;17465;47.934;33.430;2024-01-30T08:54:18;28.25;24.00;13.00
30713;PMS7003;17465;47.934;33.430;2024-01-30T08:56:54;19.25;18.25;11.50
30713;PMS7003;17465;47.934;33.430;2024-01-30T08:59:30;19.25;16.75;10.75
30713;PMS7003;17465;47.934;33.430;2024-01-30T09:02:30;25.25;21.75;13.00
30713;PMS7003;17465;47.934;33.430;2024-01-30T09:05:01;18.50;17.50;9.00
30713;PMS7003;17465;47.934;33.430;2024-01-30T09:07:32;19.25;19.00;10.00
30713;PMS7003;17465;47.934;33.430;2024-01-30T09:10:02;19.25;18.50;11.25
30713;PMS7003;17465;47.934;33.430;2024-01-30T09:12:33;20.00;19.50;12.50
30713;PMS7003;17465;47.934;33.430;2024-01-30T09:15:04;20.75;19.00;13.00
30713;PMS7003;17465;47.934;33.430;2024-01-30T09:17:35;19.50;17.50;12.50
30713;PMS7003;17465;47.934;33.430;2024-01-30T09:20:08;24.00;21.00;10.25
30713;PMS7003;17465;47.934;33.430;2024-01-30T09:22:39;20.50;18.50;11.50
30713;PMS7003;17465;47.934;33.430;2024-01-30T09:25:09;23.75;21.00;12.00
30713;PMS7003;17465;47.934;33.430;2024-01-30T09:27:48;29.50;25.75;15.75
30713;PMS7003;17465;47.934;33.430;2024-01-30T09:30:22;20.75;20.75;12.25
30713;PMS7003;17465;47.934;33.430;2024-01-30T09:32:52;18.25;15.75;9.75
30713;PMS7003;17465;47.934;33.430;2024-01-30T09:35:22;19.00;18.50;9.75
30713;PMS7003;17465;47.934;33.430;2024-01-30T09:37:53;20.00;19.00;9.00
30713;PMS7003;17465;47.934;33.430;2024-01-30T09:40:24;17.50;16.25;9.25
30713;PMS7003;17465;47.934;33.430;2024-01-30T09:42:54;9.00;8.00;2.50
30713;PMS7003;17465;47.934;33.430;2024-01-30T09:45:27;6.50;6.50;3.50
30713;PMS7003;17465;47.934;33.430;2024-01-30T09:48:00;14.50;13.00;8.75
30713;PMS7003;17465;47.934;33.430;2024-01-30T09:50:32;15.00;15.00;9.00
30713;PMS7003;17465;47.934;33.430;2024-01-30T09:53:11;14.75;14.25;9.00
30713;PMS7003;17465;47.934;33.430;2024-01-30T09:55:42;13.75;11.50;6.50
30713;PMS7003;17465;47.934;33.430;2024-01-30T09:58:13;13.00;13.00;5.75
30713;PMS7003;17465;47.934;33.430;2024-01-30T10:00:43;17.75;14.75;8.75
30713;PMS7003;17465;47.934;33.430;2024-01-30T10:03:16;11.00;11.00;7.75
30713;PMS7003;17465;47.934;33.430;2024-01-30T10:05:53;10.75;10.75;7.00
30713;PMS7003;17465;47.934;33.430;2024-01-30T10:08:26;18.75;18.25;11.50
30713;PMS7003;17465;47.934;33.430;2024-01-30T10:10:56;14.00;13.25;9.00
30713;PMS7003;17465;47.934;33.430;2024-01-30T10:13:28;14.00;12.00;8.75
30713;PMS7003;17465;47.934;33.430;2024-01-30T10:15:58;15.00;15.00;8.50
30713;PMS7003;17465;47.934;33.430;2024-01-30T10:18:29;15.00;12.75;8.00
30713;PMS7003;17465;47.934;33.430;2024-01-30T10:20:59;15.00;14.00;9.00
30713;PMS7003;17465;47.934;33.430;2024-01-30T10:23:30;19.50;16.75;9.75
30713;PMS7003;17465;47.934;33.430;2024-01-30T10:26:03;13.50;10.50;4.25
30713;PMS7003;17465;47.934;33.430;2024-01-30T10:28:34;12.50;11.50;6.75
30713;PMS7003;17465;47.934;33.430;2024-01-30T10:31:04;13.00;12.00;7.00
30713;PMS7003;17465;47.934;33.430;2024-01-30T10:33:35;12.25;11.75;7.00
30713;PMS7003;17465;47.934;33.430;2024-01-30T10:36:06;11.25;10.00;8.25
30713;PMS7003;17465;47.934;33.430;2024-01-30T10:38:37;12.50;11.75;6.00
30713;PMS7003;17465;47.934;33.430;2024-01-30T10:41:10;14.25;12.00;6.75
30713;PMS7003;17465;47.934;33.430;2024-01-30T10:43:47;12.75;11.00;6.25
30713;PMS7003;17465;47.934;33.430;2024-01-30T10:46:21;14.50;12.50;6.75
30713;PMS7003;17465;47.934;33.430;2024-01-30T10:49:00;15.25;13.00;6.50
30713;PMS7003;17465;47.934;33.430;2024-01-30T10:51:34;12.75;9.00;4.00
30713;PMS7003;17465;47.934;33.430;2024-01-30T10:54:16;14.50;13.25;5.50
30713;PMS7003;17465;47.934;33.430;2024-01-30T10:56:55;13.75;13.75;7.00
30713;PMS7003;17465;47.934;33.430;2024-01-30T10:59:29;15.75;14.75;8.00
30713;PMS7003;17465;47.934;33.430;2024-01-30T11:02:03;9.75;9.75;5.25
30713;PMS7003;17465;47.934;33.430;2024-01-30T11:04:38;9.00;8.75;4.75
30713;PMS7003;17465;47.934;33.430;2024-01-30T11:07:16;15.00;15.00;9.50
30713;PMS7003;17465;47.934;33.430;2024-01-30T11:10:21;13.00;13.00;8.25
30713;PMS7003;17465;47.934;33.430;2024-01-30T11:12:39;13.75;13.75;7.00
30713;PMS7003;17465;47.934;33.430;2024-01-30T11:15:11;18.50;16.75;10.00
30713;PMS7003;17465;47.934;33.430;2024-01-30T11:20:21;18.00;17.50;10.00
30713;PMS7003;17465;47.934;33.430;2024-01-30T11:23:00;13.25;13.25;8.00
30713;PMS7003;17465;47.934;33.430;2024-01-30T11:25:28;15.00;14.75;9.25
30713;PMS7003;17465;47.934;33.430;2024-01-30T11:28:04;17.75;17.00;9.00
30713;PMS7003;17465;47.934;33.430;2024-01-30T11:30:36;13.50;11.00;6.00
30713;PMS7003;17465;47.934;33.430;2024-01-30T11:33:10;11.75;10.75;6.50
30713;PMS7003;17465;47.934;33.430;2024-01-30T11:35:44;8.75;8.00;4.25
30713;PMS7003;17465;47.934;33.430;2024-01-30T11:38:17;12.00;12.00;8.25
30713;PMS7003;17465;47.934;33.430;2024-01-30T11:40:51;3.75;2.75;1.00
30713;PMS7003;17465;47.934;33.430;2024-01-30T11:43:22;12.75;9.75;6.75
30713;PMS7003;17465;47.934;33.430;2024-01-30T11:45:52;8.50;8.50;5.25
30713;PMS7003;17465;47.934;33.430;2024-01-30T11:48:23;11.00;9.75;5.25
30713;PMS7003;17465;47.934;33.430;2024-01-30T11:50:55;11.00;11.00;7.25
30713;PMS7003;17465;47.934;33.430;2024-01-30T11:53:26;11.50;9.75;4.75
30713;PMS7003;17465;47.934;33.430;2024-01-30T11:55:57;10.75;10.75;5.75
30713;PMS7003;17465;47.934;33.430;2024-01-30T11:58:42;11.00;9.00;5.25
30713;PMS7003;17465;47.934;33.430;2024-01-30T12:01:19;12.00;11.25;6.25
30713;PMS7003;17465;47.934;33.430;2024-01-30T12:03:51;11.25;11.25;7.50
30713;PMS7003;17465;47.934;33.430;2024-01-30T12:06:24;10.00;10.00;5.50
30713;PMS7003;17465;47.934;33.430;2024-01-30T12:08:58;12.25;11.50;4.75
30713;PMS7003;17465;47.934;33.430;2024-01-30T12:11:29;13.75;12.00;4.75
30713;PMS7003;17465;47.934;33.430;2024-01-30T12:13:59;11.50;11.50;6.50
30713;PMS7003;17465;47.934;33.430;2024-01-30T12:16:34;14.00;12.00;7.00
30713;PMS7003;17465;47.934;33.430;2024-01-30T12:19:06;15.50;14.25;7.25
30713;PMS7003;17465;47.934;33.430;2024-01-30T12:21:53;12.25;12.25;7.25
30713;PMS7003;17465;47.934;33.430;2024-01-30T12:24:19;12.25;9.25;6.75
30713;PMS7003;17465;47.934;33.430;2024-01-30T12:26:51;13.00;11.00;6.00
30713;PMS7003;17465;47.934;33.430;2024-01-30T12:29:21;10.50;7.00;3.00
30713;PMS7003;17465;47.934;33.430;2024-01-30T12:31:55;14.00;11.50;5.25
30713;PMS7003;17465;47.934;33.430;2024-01-30T12:34:25;11.25;11.25;7.25
30713;PMS7003;17465;47.934;33.430;2024-01-30T12:36:56;12.50;11.50;6.00
30713;PMS7003;17465;47.934;33.430;2024-01-30T12:39:28;12.50;12.50;5.75
30713;PMS7003;17465;47.934;33.430;2024-01-30T12:42:01;12.00;12.00;8.50
30713;PMS7003;17465;47.934;33.430;2024-01-30T12:44:33;9.75;9.00;5.00
30713;PMS7003;17465;47.934;33.430;2024-01-30T12:47:04;10.50;10.50;6.50
30713;PMS7003;17465;47.934;33.430;2024-01-30T12:49:45;15.25;15.25;7.75
30713;PMS7003;17465;47.934;33.430;2024-01-30T12:52:24;14.00;14.00;7.25
30713;PMS7003;17465;47.934;33.430;2024-01-30T12:55:00;18.25;17.75;8.00
30713;PMS7003;17465;47.934;33.430;2024-01-30T12:57:32;12.00;11.00;6.00
30713;PMS7003;17465;47.934;33.430;2024-01-30T13:00:02;9.25;8.75;4.00
30713;PMS7003;17465;47.934;33.430;2024-01-30T13:02:39;12.60;11.20;3.80
30713;PMS7003;17465;47.934;33.430;2024-01-30T13:05:21;16.75;14.75;10.25
30713;PMS7003;17465;47.934;33.430;2024-01-30T13:07:54;20.50;18.00;10.50
30713;PMS7003;17465;47.934;33.430;2024-01-30T13:10:25;21.00;21.00;16.00
30713;PMS7003;17465;47.934;33.430;2024-01-30T13:13:10;35.00;29.25;22.50
30713;PMS7003;17465;47.934;33.430;2024-01-30T13:15:28;15.00;12.50;6.25
30713;PMS7003;17465;47.934;33.430;2024-01-30T13:17:59;17.00;17.00;9.00
30713;PMS7003;17465;47.934;33.430;2024-01-30T13:20:35;17.00;15.25;7.00
30713;PMS7003;17465;47.934;33.430;2024-01-30T13:23:05;13.50;9.00;5.75
30713;PMS7003;17465;47.934;33.430;2024-01-30T13:25:37;19.75;17.25;8.25
30713;PMS7003;17465;47.934;33.430;2024-01-30T13:28:07;15.50;11.75;7.00
30713;PMS7003;17465;47.934;33.430;2024-01-30T13:30:40;12.00;10.50;6.00
30713;PMS7003;17465;47.934;33.430;2024-01-30T13:33:10;19.00;17.50;10.00
30713;PMS7003;17465;47.934;33.430;2024-01-30T13:35:46;14.50;14.50;7.00
30713;PMS7003;17465;47.934;33.430;2024-01-30T13:38:16;16.25;16.25;6.00
30713;PMS7003;17465;47.934;33.430;2024-01-30T13:40:48;18.50;15.00;8.00
30713;PMS7003;17465;47.934;33.430;2024-01-30T13:43:26;15.50;15.50;6.50
30713;PMS7003;17465;47.934;33.430;2024-01-30T13:46:04;18.00;15.00;8.00
30713;PMS7003;17465;47.934;33.430;2024-01-30T13:48:39;14.75;13.50;6.00
30713;PMS7003;17465;47.934;33.430;2024-01-30T13:51:09;20.50;15.25;7.50
30713;PMS7003;17465;47.934;33.430;2024-01-30T13:53:39;20.75;18.75;9.00
30713;PMS7003;17465;47.934;33.430;2024-01-30T13:56:10;17.25;15.75;6.75
30713;PMS7003;17465;47.934;33.430;2024-01-30T13:58:41;12.25;12.25;6.00
30713;PMS7003;17465;47.934;33.430;2024-01-30T14:01:12;18.25;15.75;5.25
30713;PMS7003;17465;47.934;33.430;2024-01-30T14:03:45;17.25;11.75;5.50
30713;PMS7003;17465;47.934;33.430;2024-01-30T14:06:16;14.50;13.25;6.00